Time,TemperatureF,DewpointF,PressureIn,WindDirection,WindDirectionDegrees,WindSpeedMPH,WindSpeedGustMPH,Humidity,HourlyPrecipIn,Conditions,Clouds,dailyrainin,SoftwareType,DateUTC
2013-03-13 00:00:00,22.0,10.9,30.14,NW,315,3.8,3.8,62,0.00,,,0.00,WUHU216HW,2013-03-13 05:00:00,
2013-03-13 00:05:00,22.0,10.9,30.14,NW,315,3.1,3.8,62,0.00,,,0.00,WUHU216HW,2013-03-13 05:05:00,
2013-03-13 00:10:00,22.0,10.9,30.14,NW,315,3.1,3.1,62,0.00,,,0.00,WUHU216HW,2013-03-13 05:10:00,
2013-03-13 00:30:00,21.1,9.7,30.15,NW,315,4.5,4.5,61,0.00,,,0.00,WUHU216HW,2013-03-13 05:30:00,
2013-03-13 00:31:00,21.1,9.7,30.14,WNW,293,5.6,5.6,61,0.00,,,0.00,WUHU216HW,2013-03-13 05:31:00,
2013-03-13 00:35:00,21.1,9.7,30.14,WNW,293,5.6,5.6,61,0.00,,,0.00,WUHU216HW,2013-03-13 05:35:00,
2013-03-13 00:40:00,21.1,9.7,30.14,WNW,293,5.6,5.6,61,0.00,,,0.00,WUHU216HW,2013-03-13 05:40:00,
2013-03-13 01:00:00,20.5,9.2,30.15,WNW,293,2.7,2.7,61,0.00,,,0.00,WUHU216HW,2013-03-13 06:00:00,
2013-03-13 01:05:00,20.3,9.4,30.15,WNW,293,2.9,3.6,62,0.00,,,0.00,WUHU216HW,2013-03-13 06:05:00,
2013-03-13 01:10:00,20.3,9.4,30.15,WNW,293,2.9,3.6,62,0.00,,,0.00,WUHU216HW,2013-03-13 06:10:00,
2013-03-13 01:31:00,18.7,8.5,30.16,West,270,4.3,4.3,64,0.00,,,0.00,WUHU216HW,2013-03-13 06:31:00,
2013-03-13 01:36:00,18.7,8.5,30.16,WNW,293,3.8,4.3,64,0.00,,,0.00,WUHU216HW,2013-03-13 06:36:00,
2013-03-13 02:00:00,17.8,9.0,30.17,WNW,293,7.4,7.4,68,0.00,,,0.00,WUHU216HW,2013-03-13 07:00:00,
2013-03-13 02:05:00,17.8,9.0,30.17,WNW,293,7.4,7.4,68,0.00,,,0.00,WUHU216HW,2013-03-13 07:05:00,
2013-03-13 02:10:00,17.8,9.0,30.17,WNW,293,7.4,7.4,68,0.00,,,0.00,WUHU216HW,2013-03-13 07:10:00,
2013-03-13 02:30:00,17.3,9.7,30.18,WNW,293,4.5,4.5,72,0.00,,,0.00,WUHU216HW,2013-03-13 07:30:00,
2013-03-13 02:35:00,17.3,9.7,30.18,WNW,293,4.5,4.5,72,0.00,,,0.00,WUHU216HW,2013-03-13 07:35:00,
2013-03-13 03:00:00,16.7,10.5,30.18,WNW,293,6.9,6.9,76,0.00,,,0.00,WUHU216HW,2013-03-13 08:00:00,
2013-03-13 03:01:00,16.7,10.7,30.18,WNW,293,6.9,6.9,77,0.00,,,0.00,WUHU216HW,2013-03-13 08:01:00,
2013-03-13 03:05:00,16.7,10.7,30.18,WNW,293,6.9,7.8,77,0.00,,,0.00,WUHU216HW,2013-03-13 08:05:00,
2013-03-13 03:10:00,16.7,10.7,30.18,WNW,293,6.9,7.8,77,0.00,,,0.00,WUHU216HW,2013-03-13 08:10:00,
2013-03-13 15:30:00,31.9,10.8,30.27,WSW,248,5.8,5.8,41,0.00,,,0.00,WUHU216HW,2013-03-13 20:30:00,
2013-03-13 15:35:00,31.9,10.8,30.27,WSW,248,5.8,5.8,41,0.00,,,0.00,WUHU216HW,2013-03-13 20:35:00,
2013-03-13 16:00:00,34.2,13.4,30.27,SSW,203,6.9,6.9,42,0.00,,,0.00,WUHU216HW,2013-03-13 21:00:00,
2013-03-13 16:05:00,34.2,13.4,30.27,WSW,248,5.6,6.9,42,0.00,,,0.00,WUHU216HW,2013-03-13 21:05:00,
2013-03-13 16:10:00,34.2,13.4,30.27,WSW,248,5.6,6.9,42,0.00,,,0.00,WUHU216HW,2013-03-13 21:10:00,
2013-03-13 16:30:00,35.6,13.7,30.26,West,270,7.8,7.8,40,0.00,,,0.00,WUHU216HW,2013-03-13 21:30:00,
2013-03-13 16:31:00,35.6,13.7,30.26,West,270,7.8,7.8,40,0.00,,,0.00,WUHU216HW,2013-03-13 21:31:00,
2013-03-13 16:35:00,35.6,13.7,30.26,West,270,7.8,7.8,40,0.00,,,0.00,WUHU216HW,2013-03-13 21:35:00,
2013-03-13 16:36:00,35.6,13.7,30.26,West,270,7.8,7.8,40,0.00,,,0.00,WUHU216HW,2013-03-13 21:36:00,
2013-03-13 16:37:00,35.6,13.7,30.26,West,270,7.8,7.8,40,0.00,,,0.00,WUHU216HW,2013-03-13 21:37:00,
2013-03-13 17:00:00,34.2,13.4,30.26,SW,225,3.4,3.4,42,0.00,,,0.00,WUHU216HW,2013-03-13 22:00:00,
2013-03-13 17:05:00,34.2,13.4,30.26,WNW,293,2.7,3.4,42,0.00,,,0.00,WUHU216HW,2013-03-13 22:05:00,
2013-03-13 17:10:00,34.2,13.4,30.26,WNW,293,2.7,2.7,42,0.00,,,0.00,WUHU216HW,2013-03-13 22:10:00,
2013-03-13 17:15:00,33.5,13.2,30.26,West,270,5.4,5.4,43,0.00,,,0.00,WUHU216HW,2013-03-13 22:15:00,
2013-03-13 17:16:00,33.5,13.2,30.26,West,270,5.4,5.4,43,0.00,,,0.00,WUHU216HW,2013-03-13 22:16:00,
2013-03-13 17:21:00,33.5,13.8,30.26,WSW,244,5.1,7.4,44,0.00,,,0.00,WUHU216HW,2013-03-13 22:21:00,
2013-03-13 17:22:00,33.7,14.0,30.25,SW,228,3.4,7.4,44,0.00,,,0.00,WUHU216HW,2013-03-13 22:22:00,
2013-03-13 17:26:00,34.2,14.4,30.26,WSW,248,5.1,7.8,44,0.00,,,0.00,WUHU216HW,2013-03-13 22:26:00,
2013-03-13 17:27:00,33.8,13.6,30.25,West,270,8.3,9.2,43,0.00,,,0.00,WUHU216HW,2013-03-13 22:27:00,
2013-03-13 17:31:00,33.3,14.1,30.25,West,270,5.4,9.2,45,0.00,,,0.00,WUHU216HW,2013-03-13 22:31:00,
2013-03-13 17:32:00,33.5,14.2,30.25,WNW,293,6.7,9.2,45,0.00,,,0.00,WUHU216HW,2013-03-13 22:32:00,
2013-03-13 17:36:00,34.0,14.2,30.25,SW,225,4.7,9.2,44,0.00,,,0.00,WUHU216HW,2013-03-13 22:36:00,
2013-03-13 17:37:00,34.2,14.4,30.25,West,270,6.3,7.6,44,0.00,,,0.00,WUHU216HW,2013-03-13 22:37:00,
2013-03-13 17:38:00,34.0,14.2,30.25,West,264,5.3,7.6,44,0.00,,,0.00,WUHU216HW,2013-03-13 22:38:00,
2013-03-13 17:41:00,33.7,14.0,30.25,SW,236,4.3,7.6,44,0.00,,,0.00,WUHU216HW,2013-03-13 22:41:00,
2013-03-13 17:42:00,33.8,14.0,30.25,SW,225,4.2,7.6,44,0.00,,,0.00,WUHU216HW,2013-03-13 22:42:00,
2013-03-13 17:43:00,34.0,14.2,30.25,SW,225,4.7,6.3,44,0.00,,,0.00,WUHU216HW,2013-03-13 22:43:00,
2013-03-13 17:46:00,34.2,14.0,30.25,West,264,4.6,6.3,43,0.00,,,0.00,WUHU216HW,2013-03-13 22:46:00,
2013-03-13 17:47:00,34.2,14.0,30.25,West,270,4.7,6.3,43,0.00,,,0.00,WUHU216HW,2013-03-13 22:47:00,
2013-03-13 17:48:00,34.2,14.0,30.25,WSW,252,4.1,6.3,43,0.00,,,0.00,WUHU216HW,2013-03-13 22:48:00,
2013-03-13 17:52:00,34.9,14.6,30.24,SSW,203,4.7,6.0,43,0.00,,,0.00,WUHU216HW,2013-03-13 22:52:00,
2013-03-13 17:53:00,35.1,14.2,30.25,SSW,198,4.1,6.0,42,0.00,,,0.00,WUHU216HW,2013-03-13 22:53:00,
2013-03-13 17:57:00,34.2,14.0,30.24,West,270,6.9,7.4,43,0.00,,,0.00,WUHU216HW,2013-03-13 22:57:00,
2013-03-13 17:58:00,33.8,14.0,30.24,West,265,6.3,7.6,44,0.00,,,0.00,WUHU216HW,2013-03-13 22:58:00,
2013-03-13 18:02:00,32.4,13.8,30.24,WNW,293,6.3,7.6,46,0.00,,,0.00,WUHU216HW,2013-03-13 23:02:00,
2013-03-13 18:03:00,32.4,13.8,30.24,West,271,5.7,7.6,46,0.00,,,0.00,WUHU216HW,2013-03-13 23:03:00,
2013-03-13 18:07:00,32.4,14.8,30.24,SW,219,4.4,6.5,48,0.00,,,0.00,WUHU216HW,2013-03-13 23:07:00,
2013-03-13 18:08:00,32.4,14.8,30.24,SW,216,4.3,6.5,48,0.00,,,0.00,WUHU216HW,2013-03-13 23:08:00,
2013-03-13 18:13:00,33.1,15.5,30.24,SSW,205,2.2,5.8,48,0.00,,,0.00,WUHU216HW,2013-03-13 23:13:00,
2013-03-13 18:14:00,33.3,15.1,30.24,SSE,158,3.4,5.8,47,0.00,,,0.00,WUHU216HW,2013-03-13 23:14:00,
2013-03-13 18:18:00,33.7,15.0,30.24,WSW,245,2.3,4.0,46,0.00,,,0.00,WUHU216HW,2013-03-13 23:18:00,
2013-03-13 18:19:00,33.7,15.0,30.24,WSW,237,1.7,4.0,46,0.00,,,0.00,WUHU216HW,2013-03-13 23:19:00,
2013-03-13 18:23:00,33.7,15.4,30.24,WSW,248,5.4,5.4,47,0.00,,,0.00,WUHU216HW,2013-03-13 23:23:00,
2013-03-13 18:24:00,33.5,15.3,30.24,WSW,255,4.1,5.4,47,0.00,,,0.00,WUHU216HW,2013-03-13 23:24:00,
2013-03-13 18:28:00,33.5,15.8,30.24,SW,225,5.4,5.4,48,0.00,,,0.00,WUHU216HW,2013-03-13 23:28:00,
2013-03-13 18:29:00,33.5,15.8,30.25,WSW,248,4.7,6.9,48,0.00,,,0.00,WUHU216HW,2013-03-13 23:29:00,
2013-03-13 18:33:00,32.8,15.7,30.25,SSW,212,3.5,6.9,49,0.00,,,0.00,WUHU216HW,2013-03-13 23:33:00,
2013-03-13 18:34:00,32.8,16.1,30.25,SW,225,4.0,6.9,50,0.00,,,0.00,WUHU216HW,2013-03-13 23:34:00,
2013-03-13 18:35:00,32.4,16.2,30.25,South,180,3.8,6.9,51,0.00,,,0.00,WUHU216HW,2013-03-13 23:35:00,
2013-03-13 18:38:00,32.0,16.4,30.25,South,180,3.8,6.9,52,0.00,,,0.00,WUHU216HW,2013-03-13 23:38:00,
2013-03-13 18:39:00,32.0,16.4,30.25,South,180,3.8,5.4,52,0.00,,,0.00,WUHU216HW,2013-03-13 23:39:00,
2013-03-13 18:40:00,32.0,16.4,30.25,South,180,3.8,4.7,52,0.00,,,0.00,WUHU216HW,2013-03-13 23:40:00,
2013-03-13 18:43:00,32.0,16.4,30.25,South,180,3.8,4.7,52,0.00,,,0.00,WUHU216HW,2013-03-13 23:43:00,
2013-03-13 18:44:00,32.0,16.4,30.25,South,180,3.8,4.7,52,0.00,,,0.00,WUHU216HW,2013-03-13 23:44:00,
2013-03-13 18:45:00,32.0,16.4,30.25,South,180,3.8,4.5,52,0.00,,,0.00,WUHU216HW,2013-03-13 23:45:00,
2013-03-13 18:48:00,32.0,16.4,30.25,South,180,3.8,3.8,52,0.00,,,0.00,WUHU216HW,2013-03-13 23:48:00,
2013-03-13 19:00:00,30.1,16.2,30.25,SSW,203,6.3,6.3,56,0.00,,,0.00,WUHU216HW,2013-03-14 00:00:00,
2013-03-13 19:05:00,29.7,16.3,30.25,SSW,212,5.6,6.3,57,0.00,,,0.00,WUHU216HW,2013-03-14 00:05:00,
2013-03-13 19:10:00,29.3,16.4,30.25,SSW,208,5.9,8.3,58,0.00,,,0.00,WUHU216HW,2013-03-14 00:10:00,
2013-03-13 19:15:00,29.0,16.5,30.25,SSW,204,3.3,8.3,59,0.00,,,0.00,WUHU216HW,2013-03-14 00:15:00,
2013-03-13 19:16:00,29.0,16.5,30.25,SSW,203,5.4,8.3,59,0.00,,,0.00,WUHU216HW,2013-03-14 00:16:00,
2013-03-13 19:20:00,28.6,16.1,30.25,WSW,248,4.3,7.2,59,0.00,,,0.00,WUHU216HW,2013-03-14 00:20:00,
2013-03-13 19:21:00,28.6,16.1,30.25,SSW,203,5.6,7.2,59,0.00,,,0.00,WUHU216HW,2013-03-14 00:21:00,
2013-03-13 19:25:00,28.4,16.4,30.25,SW,219,5.3,6.9,60,0.00,,,0.00,WUHU216HW,2013-03-14 00:25:00,
2013-03-13 19:27:00,28.4,16.4,30.25,SSW,203,4.7,6.9,60,0.00,,,0.00,WUHU216HW,2013-03-14 00:27:00,
2013-03-13 19:30:00,28.3,16.2,30.25,SSW,213,6.3,8.3,60,0.00,,,0.00,WUHU216HW,2013-03-14 00:30:00,
2013-03-13 19:31:00,28.3,16.2,30.25,SSW,207,5.9,8.3,60,0.00,,,0.00,WUHU216HW,2013-03-14 00:31:00,
2013-03-13 19:32:00,28.3,16.2,30.25,SSW,212,5.1,8.3,60,0.00,,,0.00,WUHU216HW,2013-03-14 00:32:00,
2013-03-13 19:35:00,28.1,16.0,30.25,SW,225,5.4,8.3,60,0.00,,,0.00,WUHU216HW,2013-03-14 00:35:00,
2013-03-13 19:37:00,27.9,15.8,30.25,SW,225,5.4,8.3,60,0.00,,,0.00,WUHU216HW,2013-03-14 00:37:00,
2013-03-13 19:38:00,27.9,15.8,30.25,SW,225,6.0,8.1,60,0.00,,,0.00,WUHU216HW,2013-03-14 00:38:00,
2013-03-13 19:40:00,27.7,15.7,30.25,SSW,200,3.1,6.0,60,0.00,,,0.00,WUHU216HW,2013-03-14 00:40:00,
2013-03-13 19:42:00,27.7,15.7,30.25,SW,225,6.3,6.3,60,0.00,,,0.00,WUHU216HW,2013-03-14 00:42:00,
2013-03-13 19:43:00,27.7,15.7,30.25,SW,225,5.4,6.3,60,0.00,,,0.00,WUHU216HW,2013-03-14 00:43:00,
2013-03-13 19:46:00,27.7,15.7,30.25,SSW,203,5.4,7.4,60,0.00,,,0.00,WUHU216HW,2013-03-14 00:46:00,
2013-03-13 19:47:00,27.5,15.5,30.25,SW,216,4.8,7.4,60,0.00,,,0.00,WUHU216HW,2013-03-14 00:47:00,
2013-03-13 19:48:00,27.5,15.5,30.25,SSW,205,5.1,7.4,60,0.00,,,0.00,WUHU216HW,2013-03-14 00:48:00,
2013-03-13 19:51:00,27.5,15.5,30.25,SSW,203,8.9,9.8,60,0.00,,,0.00,WUHU216HW,2013-03-14 00:51:00,
2013-03-13 19:52:00,27.5,15.5,30.25,SSW,213,6.7,9.8,60,0.00,,,0.00,WUHU216HW,2013-03-14 00:52:00,
2013-03-13 19:53:00,27.5,15.5,30.25,SW,225,7.6,9.8,60,0.00,,,0.00,WUHU216HW,2013-03-14 00:53:00,
2013-03-13 19:56:00,27.4,15.3,30.25,SSW,203,5.4,9.8,60,0.00,,,0.00,WUHU216HW,2013-03-14 00:56:00,
2013-03-13 19:57:00,27.4,15.3,30.25,SSW,213,5.3,9.8,60,0.00,,,0.00,WUHU216HW,2013-03-14 00:57:00,
2013-03-13 19:58:00,27.4,15.3,30.25,SSW,209,4.4,9.8,60,0.00,,,0.00,WUHU216HW,2013-03-14 00:58:00,
2013-03-13 20:02:00,27.2,15.5,30.25,SW,219,3.6,7.6,61,0.00,,,0.00,WUHU216HW,2013-03-14 01:02:00,
2013-03-13 20:03:00,27.0,15.3,30.25,SSW,203,4.5,7.6,61,0.00,,,0.00,WUHU216HW,2013-03-14 01:03:00,
2013-03-13 20:07:00,27.0,15.3,30.24,SSW,212,4.9,6.5,61,0.00,,,0.00,WUHU216HW,2013-03-14 01:07:00,
2013-03-13 20:08:00,27.0,15.3,30.24,SSW,203,6.3,6.5,61,0.00,,,0.00,WUHU216HW,2013-03-14 01:08:00,
2013-03-13 20:12:00,26.8,15.1,30.24,SW,225,4.5,6.5,61,0.00,,,0.00,WUHU216HW,2013-03-14 01:12:00,
2013-03-13 20:13:00,27.0,15.3,30.24,SW,214,4.4,6.7,61,0.00,,,0.00,WUHU216HW,2013-03-14 01:13:00,
2013-03-13 20:17:00,26.6,15.3,30.24,SSW,203,3.6,6.7,62,0.00,,,0.00,WUHU216HW,2013-03-14 01:17:00,
2013-03-13 20:18:00,26.6,15.3,30.24,SSW,202,2.8,6.7,62,0.00,,,0.00,WUHU216HW,2013-03-14 01:18:00,
2013-03-13 20:19:00,26.6,15.3,30.24,SSW,199,2.5,6.7,62,0.00,,,0.00,WUHU216HW,2013-03-14 01:19:00,
2013-03-13 20:22:00,26.3,14.9,30.24,SSW,194,1.5,6.7,62,0.00,,,0.00,WUHU216HW,2013-03-14 01:22:00,
2013-03-13 20:23:00,26.3,14.9,30.24,South,180,2.0,4.7,62,0.00,,,0.00,WUHU216HW,2013-03-14 01:23:00,
2013-03-13 20:24:00,26.3,14.9,30.24,South,180,1.6,4.7,62,0.00,,,0.00,WUHU216HW,2013-03-14 01:24:00,
2013-03-13 20:28:00,26.1,14.5,30.24,SSW,203,1.1,3.1,61,0.00,,,0.00,WUHU216HW,2013-03-14 01:28:00,
2013-03-13 20:29:00,26.1,14.5,30.24,SSW,207,1.1,3.1,61,0.00,,,0.00,WUHU216HW,2013-03-14 01:29:00,
2013-03-13 20:33:00,25.9,14.3,30.24,SE,135,2.2,2.7,61,0.00,,,0.00,WUHU216HW,2013-03-14 01:33:00,
2013-03-13 20:34:00,25.9,14.3,30.24,SSW,203,1.8,2.7,61,0.00,,,0.00,WUHU216HW,2013-03-14 01:34:00,
2013-03-13 20:38:00,25.9,14.7,30.24,South,185,1.7,3.4,62,0.00,,,0.00,WUHU216HW,2013-03-14 01:38:00,
2013-03-13 20:39:00,25.9,14.7,30.24,South,170,1.5,3.4,62,0.00,,,0.00,WUHU216HW,2013-03-14 01:39:00,
2013-03-13 20:43:00,25.6,14.3,30.24,WSW,248,2.2,3.4,62,0.00,,,0.00,WUHU216HW,2013-03-14 01:43:00,
2013-03-13 20:44:00,25.6,14.3,30.24,SW,225,2.0,3.4,62,0.00,,,0.00,WUHU216HW,2013-03-14 01:44:00,
2013-03-13 20:48:00,25.6,14.3,30.23,SSW,196,2.1,4.0,62,0.00,,,0.00,WUHU216HW,2013-03-14 01:48:00,
2013-03-13 20:49:00,25.6,14.7,30.24,SSE,158,1.6,4.0,63,0.00,,,0.00,WUHU216HW,2013-03-14 01:49:00,
2013-03-13 20:50:00,25.6,14.7,30.23,South,189,1.4,4.0,63,0.00,,,0.00,WUHU216HW,2013-03-14 01:50:00,
2013-03-13 20:54:00,25.6,14.7,30.23,SSW,203,1.8,4.0,63,0.00,,,0.00,WUHU216HW,2013-03-14 01:54:00,
2013-03-13 20:55:00,25.6,14.7,30.23,SSW,211,1.6,4.0,63,0.00,,,0.00,WUHU216HW,2013-03-14 01:55:00,
2013-03-13 20:59:00,25.4,14.5,30.23,SSE,158,1.1,2.7,63,0.00,,,0.00,WUHU216HW,2013-03-14 01:59:00,
2013-03-13 21:00:00,25.4,14.5,30.23,SSE,159,1.0,2.7,63,0.00,,,0.00,WUHU216HW,2013-03-14 02:00:00,
2013-03-13 21:04:00,25.4,14.5,30.24,South,185,1.4,3.6,63,0.00,,,0.00,WUHU216HW,2013-03-14 02:04:00,
2013-03-13 21:05:00,25.2,14.3,30.24,South,173,1.2,3.6,63,0.00,,,0.00,WUHU216HW,2013-03-14 02:05:00,
2013-03-13 21:09:00,25.2,14.7,30.23,South,180,2.0,3.6,64,0.00,,,0.00,WUHU216HW,2013-03-14 02:09:00,
2013-03-13 21:10:00,25.2,14.7,30.23,SSW,203,2.7,3.6,64,0.00,,,0.00,WUHU216HW,2013-03-14 02:10:00,
2013-03-13 21:14:00,25.2,14.7,30.23,South,180,1.8,4.0,64,0.00,,,0.00,WUHU216HW,2013-03-14 02:14:00,
2013-03-13 21:15:00,25.2,14.7,30.23,SSW,195,1.4,4.0,64,0.00,,,0.00,WUHU216HW,2013-03-14 02:15:00,
2013-03-13 21:19:00,25.0,14.9,30.23,SW,225,3.6,4.0,65,0.00,,,0.00,WUHU216HW,2013-03-14 02:19:00,
2013-03-13 21:20:00,25.0,14.9,30.23,SW,218,2.7,4.0,65,0.00,,,0.00,WUHU216HW,2013-03-14 02:20:00,
2013-03-13 21:24:00,25.0,14.9,30.23,SSW,212,1.7,4.0,65,0.00,,,0.00,WUHU216HW,2013-03-14 02:24:00,
2013-03-13 21:25:00,25.0,14.9,30.23,SSW,203,3.1,4.0,65,0.00,,,0.00,WUHU216HW,2013-03-14 02:25:00,
2013-03-13 21:29:00,25.0,14.9,30.23,SSW,203,3.4,3.8,65,0.00,,,0.00,WUHU216HW,2013-03-14 02:29:00,
2013-03-13 21:30:00,24.8,14.7,30.23,SSW,203,3.4,3.4,65,0.00,,,0.00,WUHU216HW,2013-03-14 02:30:00,
2013-03-13 21:34:00,24.8,14.7,30.23,SSW,211,1.0,3.4,65,0.00,,,0.00,WUHU216HW,2013-03-14 02:34:00,
2013-03-13 21:35:00,24.8,14.7,30.23,SSW,211,1.0,3.4,65,0.00,,,0.00,WUHU216HW,2013-03-14 02:35:00,
2013-03-13 21:40:00,24.8,14.7,30.23,SSE,167,0.9,3.4,65,0.00,,,0.00,WUHU216HW,2013-03-14 02:40:00,
2013-03-13 21:45:00,24.7,14.9,30.22,South,175,1.3,3.4,66,0.00,,,0.00,WUHU216HW,2013-03-14 02:45:00,
2013-03-13 21:46:00,24.7,14.9,30.22,South,174,1.2,3.4,66,0.00,,,0.00,WUHU216HW,2013-03-14 02:46:00,
2013-03-13 21:50:00,24.5,14.7,30.22,SSW,203,2.5,3.4,66,0.00,,,0.00,WUHU216HW,2013-03-14 02:50:00,
2013-03-13 21:51:00,24.5,14.7,30.22,SSE,158,2.2,3.1,66,0.00,,,0.00,WUHU216HW,2013-03-14 02:51:00,
2013-03-13 21:52:00,24.5,14.7,30.22,WSW,248,2.5,3.1,66,0.00,,,0.00,WUHU216HW,2013-03-14 02:52:00,
2013-03-13 21:55:00,24.5,14.7,30.22,SSW,195,1.3,3.6,66,0.00,,,0.00,WUHU216HW,2013-03-14 02:55:00,
2013-03-13 21:57:00,24.5,14.7,30.22,South,186,0.9,3.6,66,0.00,,,0.00,WUHU216HW,2013-03-14 02:57:00,
2013-03-13 22:00:00,24.3,14.9,30.22,South,180,2.5,3.6,67,0.00,,,0.00,WUHU216HW,2013-03-14 03:00:00,
2013-03-13 22:02:00,24.3,14.9,30.22,SW,225,1.8,3.6,67,0.00,,,0.00,WUHU216HW,2013-03-14 03:02:00,
2013-03-13 22:05:00,24.3,14.9,30.22,South,180,1.8,4.3,67,0.00,,,0.00,WUHU216HW,2013-03-14 03:05:00,
2013-03-13 22:06:00,24.3,14.9,30.22,South,180,1.8,4.3,67,0.00,,,0.00,WUHU216HW,2013-03-14 03:06:00,
2013-03-13 22:07:00,24.3,14.9,30.22,South,188,1.9,4.3,67,0.00,,,0.00,WUHU216HW,2013-03-14 03:07:00,
2013-03-13 22:10:00,24.3,14.9,30.22,SSW,192,1.8,4.3,67,0.00,,,0.00,WUHU216HW,2013-03-14 03:10:00,
2013-03-13 22:12:00,24.3,15.2,30.22,SSW,203,1.8,4.3,68,0.00,,,0.00,WUHU216HW,2013-03-14 03:12:00,
2013-03-13 22:16:00,24.1,15.0,30.22,WSW,248,3.6,3.6,68,0.00,,,0.00,WUHU216HW,2013-03-14 03:16:00,
2013-03-13 22:17:00,24.1,15.0,30.22,SW,225,3.4,3.6,68,0.00,,,0.00,WUHU216HW,2013-03-14 03:17:00,
2013-03-13 22:21:00,24.1,15.0,30.22,South,180,1.8,3.6,68,0.00,,,0.00,WUHU216HW,2013-03-14 03:21:00,
2013-03-13 22:22:00,24.1,15.0,30.21,SSE,158,1.7,3.6,68,0.00,,,0.00,WUHU216HW,2013-03-14 03:22:00,
2013-03-13 22:24:00,24.1,15.4,30.22,South,185,2.4,4.0,69,0.00,,,0.00,WUHU216HW,2013-03-14 03:24:00,
2013-03-13 22:26:00,24.1,15.0,30.22,SSW,203,3.4,4.0,68,0.00,,,0.00,WUHU216HW,2013-03-14 03:26:00,
2013-03-13 22:27:00,23.9,15.2,30.22,SSW,194,2.1,4.0,69,0.00,,,0.00,WUHU216HW,2013-03-14 03:27:00,
2013-03-13 22:28:00,23.9,15.2,30.22,SSE,158,2.5,4.0,69,0.00,,,0.00,WUHU216HW,2013-03-14 03:28:00,
2013-03-13 22:29:00,23.9,14.9,30.22,South,175,2.1,4.0,68,0.00,,,0.00,WUHU216HW,2013-03-14 03:29:00,
2013-03-13 22:31:00,23.9,14.9,30.22,SE,135,4.5,4.5,68,0.00,,,0.00,WUHU216HW,2013-03-14 03:31:00,
2013-03-13 22:32:00,23.9,14.9,30.22,SSW,193,2.4,4.5,68,0.00,,,0.00,WUHU216HW,2013-03-14 03:32:00,
2013-03-13 22:33:00,23.8,15.0,30.21,South,180,2.5,4.5,69,0.00,,,0.00,WUHU216HW,2013-03-14 03:33:00,
2013-03-13 22:34:00,23.9,14.9,30.22,SSW,202,1.9,4.5,68,0.00,,,0.00,WUHU216HW,2013-03-14 03:34:00,
2013-03-13 22:36:00,23.8,15.0,30.22,South,180,4.0,4.5,69,0.00,,,0.00,WUHU216HW,2013-03-14 03:36:00,
2013-03-13 22:37:00,23.8,15.0,30.21,SSW,193,3.0,4.5,69,0.00,,,0.00,WUHU216HW,2013-03-14 03:37:00,
2013-03-13 22:38:00,23.8,15.0,30.21,SSW,192,2.7,4.5,69,0.00,,,0.00,WUHU216HW,2013-03-14 03:38:00,
2013-03-13 22:39:00,23.8,15.0,30.22,SSE,168,1.4,4.5,69,0.00,,,0.00,WUHU216HW,2013-03-14 03:39:00,
2013-03-13 22:42:00,23.6,14.9,30.21,South,188,1.0,4.0,69,0.00,,,0.00,WUHU216HW,2013-03-14 03:42:00,
2013-03-13 22:43:00,23.6,14.9,30.21,SSW,203,3.4,4.0,69,0.00,,,0.00,WUHU216HW,2013-03-14 03:43:00,
2013-03-13 22:45:00,23.6,14.9,30.21,South,180,1.8,4.0,69,0.00,,,0.00,WUHU216HW,2013-03-14 03:45:00,
2013-03-13 22:47:00,23.4,14.8,30.21,SSW,203,2.9,3.8,69,0.00,,,0.00,WUHU216HW,2013-03-14 03:47:00,
2013-03-13 22:48:00,23.4,14.8,30.21,South,189,2.5,3.8,69,0.00,,,0.00,WUHU216HW,2013-03-14 03:48:00,
2013-03-13 22:50:00,23.4,14.8,30.21,South,180,1.8,3.8,69,0.00,,,0.00,WUHU216HW,2013-03-14 03:50:00,
2013-03-13 22:52:00,23.4,14.8,30.21,South,169,1.0,3.8,69,0.00,,,0.00,WUHU216HW,2013-03-14 03:52:00,
2013-03-13 22:53:00,23.4,14.8,30.21,South,180,0.9,3.8,69,0.00,,,0.00,WUHU216HW,2013-03-14 03:53:00,
2013-03-13 22:55:00,23.2,14.6,30.21,South,179,1.5,3.8,69,0.00,,,0.00,WUHU216HW,2013-03-14 03:55:00,
2013-03-13 22:58:00,23.0,14.4,30.21,SSE,158,2.0,3.1,69,0.00,,,0.00,WUHU216HW,2013-03-14 03:58:00,
2013-03-13 23:00:00,23.0,14.8,30.21,SSE,161,2.2,3.4,70,0.00,,,0.00,WUHU216HW,2013-03-14 04:00:00,
2013-03-13 23:05:00,23.0,15.0,30.21,SSE,167,2.5,3.6,71,0.00,,,0.00,WUHU216HW,2013-03-14 04:05:00,
2013-03-13 23:10:00,22.9,14.9,30.20,SSE,168,1.7,3.8,71,0.00,,,0.00,WUHU216HW,2013-03-14 04:10:00,
2013-03-13 23:15:00,22.9,14.9,30.20,SSW,197,1.1,3.8,71,0.00,,,0.00,WUHU216HW,2013-03-14 04:15:00,
2013-03-13 23:20:00,22.7,14.7,30.20,SSE,156,2.2,4.3,71,0.00,,,0.00,WUHU216HW,2013-03-14 04:20:00,
2013-03-13 23:25:00,22.7,15.0,30.21,SSE,158,2.0,4.3,72,0.00,,,0.00,WUHU216HW,2013-03-14 04:25:00,
2013-03-13 23:26:00,22.7,15.0,30.20,SSE,158,2.0,4.3,72,0.00,,,0.00,WUHU216HW,2013-03-14 04:26:00,
2013-03-13 23:30:00,22.7,15.0,30.20,SSW,203,2.2,4.0,72,0.00,,,0.00,WUHU216HW,2013-03-14 04:30:00,
2013-03-13 23:31:00,22.7,15.0,30.20,South,178,1.4,4.0,72,0.00,,,0.00,WUHU216HW,2013-03-14 04:31:00,
2013-03-13 23:35:00,22.7,15.0,30.20,SSE,158,2.2,4.0,72,0.00,,,0.00,WUHU216HW,2013-03-14 04:35:00,
2013-03-13 23:37:00,22.7,15.0,30.20,South,180,2.7,4.0,72,0.00,,,0.00,WUHU216HW,2013-03-14 04:37:00,
2013-03-13 23:40:00,22.7,15.3,30.20,WSW,248,1.6,4.0,73,0.00,,,0.00,WUHU216HW,2013-03-14 04:40:00,
2013-03-13 23:42:00,22.7,15.3,30.20,SSW,203,1.8,2.7,73,0.00,,,0.00,WUHU216HW,2013-03-14 04:42:00,
2013-03-13 23:45:00,22.7,15.3,30.20,SSE,159,1.8,2.7,73,0.00,,,0.00,WUHU216HW,2013-03-14 04:45:00,
2013-03-13 23:46:00,22.7,15.3,30.20,SSE,165,1.5,2.7,73,0.00,,,0.00,WUHU216HW,2013-03-14 04:46:00,
2013-03-13 23:47:00,22.7,15.3,30.20,SSE,158,3.4,3.4,73,0.00,,,0.00,WUHU216HW,2013-03-14 04:47:00,
2013-03-13 23:50:00,22.7,15.3,30.20,South,180,2.5,3.6,73,0.00,,,0.00,WUHU216HW,2013-03-14 04:50:00,
2013-03-13 23:51:00,22.7,15.3,30.20,SSE,156,2.0,4.9,73,0.00,,,0.00,WUHU216HW,2013-03-14 04:51:00,
2013-03-13 23:52:00,22.7,15.3,30.20,SSE,158,4.0,4.9,73,0.00,,,0.00,WUHU216HW,2013-03-14 04:52:00,
2013-03-13 23:55:00,22.7,15.3,30.19,South,172,2.5,4.9,73,0.00,,,0.00,WUHU216HW,2013-03-14 04:55:00,
2013-03-13 23:56:00,22.7,15.3,30.19,South,173,2.4,4.9,73,0.00,,,0.00,WUHU216HW,2013-03-14 04:56:00,
2013-03-13 23:58:00,22.7,15.3,30.19,South,180,3.6,4.9,73,0.00,,,0.00,WUHU216HW,2013-03-14 04:58:00,